sensor_id;sensor_type;location;lat;lon;timestamp;P1;durP1;ratioP1;P2;durP2;ratioP2
59314;SDS011;46521;50.160;20.802;2023-05-02T00:09:24;10.17;;;4.80;;
59314;SDS011;46521;50.160;20.802;2023-05-02T00:19:25;9.55;;;3.95;;
59314;SDS011;46521;50.160;20.802;2023-05-02T00:29:27;8.68;;;3.70;;
59314;SDS011;46521;50.160;20.802;2023-05-02T00:39:28;8.50;;;3.78;;
59314;SDS011;46521;50.160;20.802;2023-05-02T00:49:30;9.20;;;3.77;;
59314;SDS011;46521;50.160;20.802;2023-05-02T00:59:33;10.00;;;4.45;;
59314;SDS011;46521;50.160;20.802;2023-05-02T01:09:39;8.87;;;4.37;;
59314;SDS011;46521;50.160;20.802;2023-05-02T01:19:51;8.37;;;4.00;;
59314;SDS011;46521;50.160;20.802;2023-05-02T01:29:56;10.80;;;4.35;;
59314;SDS011;46521;50.160;20.802;2023-05-02T01:39:59;7.93;;;3.75;;
59314;SDS011;46521;50.160;20.802;2023-05-02T01:50:04;8.37;;;3.47;;
59314;SDS011;46521;50.160;20.802;2023-05-02T02:00:09;10.30;;;3.90;;
59314;SDS011;46521;50.160;20.802;2023-05-02T02:10:12;7.97;;;3.57;;
59314;SDS011;46521;50.160;20.802;2023-05-02T02:20:14;8.83;;;3.90;;
59314;SDS011;46521;50.160;20.802;2023-05-02T02:30:17;8.60;;;3.63;;
59314;SDS011;46521;50.160;20.802;2023-05-02T02:40:26;9.50;;;3.97;;
59314;SDS011;46521;50.160;20.802;2023-05-02T02:50:31;8.30;;;3.98;;
59314;SDS011;46521;50.160;20.802;2023-05-02T03:00:39;16.05;;;4.60;;
59314;SDS011;46521;50.160;20.802;2023-05-02T03:10:41;8.47;;;3.70;;
59314;SDS011;46521;50.160;20.802;2023-05-02T03:20:42;8.93;;;3.65;;
59314;SDS011;46521;50.160;20.802;2023-05-02T03:30:44;10.95;;;5.58;;
59314;SDS011;46521;50.160;20.802;2023-05-02T03:40:46;7.85;;;3.98;;
59314;SDS011;46521;50.160;20.802;2023-05-02T03:50:48;10.65;;;4.55;;
59314;SDS011;46521;50.160;20.802;2023-05-02T04:00:50;14.13;;;6.77;;
59314;SDS011;46521;50.160;20.802;2023-05-02T04:10:55;13.98;;;7.10;;
59314;SDS011;46521;50.160;20.802;2023-05-02T04:20:56;8.47;;;4.47;;
59314;SDS011;46521;50.160;20.802;2023-05-02T04:30:58;11.53;;;4.70;;
59314;SDS011;46521;50.160;20.802;2023-05-02T04:40:59;8.30;;;3.75;;
59314;SDS011;46521;50.160;20.802;2023-05-02T04:51:01;9.60;;;3.93;;
59314;SDS011;46521;50.160;20.802;2023-05-02T05:01:03;9.70;;;4.45;;
59314;SDS011;46521;50.160;20.802;2023-05-02T05:11:04;8.47;;;4.17;;
59314;SDS011;46521;50.160;20.802;2023-05-02T05:21:06;8.60;;;4.00;;
59314;SDS011;46521;50.160;20.802;2023-05-02T05:31:08;9.05;;;3.63;;
59314;SDS011;46521;50.160;20.802;2023-05-02T05:41:17;8.27;;;3.43;;
59314;SDS011;46521;50.160;20.802;2023-05-02T05:51:18;12.90;;;4.05;;
59314;SDS011;46521;50.160;20.802;2023-05-02T06:01:20;9.47;;;3.30;;
59314;SDS011;46521;50.160;20.802;2023-05-02T06:11:21;8.80;;;3.40;;
59314;SDS011;46521;50.160;20.802;2023-05-02T06:21:24;7.73;;;3.30;;
59314;SDS011;46521;50.160;20.802;2023-05-02T06:31:26;6.63;;;2.98;;
59314;SDS011;46521;50.160;20.802;2023-05-02T06:41:27;6.37;;;2.43;;
59314;SDS011;46521;50.160;20.802;2023-05-02T06:51:29;5.63;;;2.37;;
59314;SDS011;46521;50.160;20.802;2023-05-02T07:01:31;7.40;;;2.60;;
59314;SDS011;46521;50.160;20.802;2023-05-02T07:11:33;7.50;;;2.50;;
59314;SDS011;46521;50.160;20.802;2023-05-02T07:21:34;7.60;;;2.87;;
59314;SDS011;46521;50.160;20.802;2023-05-02T07:31:35;7.20;;;2.50;;
59314;SDS011;46521;50.160;20.802;2023-05-02T07:41:38;8.50;;;2.63;;
59314;SDS011;46521;50.160;20.802;2023-05-02T07:51:39;5.50;;;1.90;;
59314;SDS011;46521;50.160;20.802;2023-05-02T08:01:41;7.50;;;2.38;;
59314;SDS011;46521;50.160;20.802;2023-05-02T08:11:43;5.23;;;2.60;;
59314;SDS011;46521;50.160;20.802;2023-05-02T08:21:44;7.30;;;2.63;;
59314;SDS011;46521;50.160;20.802;2023-05-02T08:31:45;6.20;;;2.53;;
59314;SDS011;46521;50.160;20.802;2023-05-02T08:41:47;6.30;;;2.50;;
59314;SDS011;46521;50.160;20.802;2023-05-02T08:51:49;7.65;;;3.20;;
59314;SDS011;46521;50.160;20.802;2023-05-02T09:01:54;6.50;;;2.55;;
59314;SDS011;46521;50.160;20.802;2023-05-02T09:11:59;8.65;;;3.70;;
59314;SDS011;46521;50.160;20.802;2023-05-02T09:22:01;6.10;;;2.43;;
59314;SDS011;46521;50.160;20.802;2023-05-02T09:32:06;6.97;;;2.50;;
59314;SDS011;46521;50.160;20.802;2023-05-02T09:42:07;6.97;;;2.67;;
59314;SDS011;46521;50.160;20.802;2023-05-02T09:52:12;6.08;;;2.80;;
59314;SDS011;46521;50.160;20.802;2023-05-02T10:02:15;6.38;;;2.70;;
59314;SDS011;46521;50.160;20.802;2023-05-02T10:12:17;6.50;;;3.13;;
59314;SDS011;46521;50.160;20.802;2023-05-02T10:22:21;6.05;;;3.05;;
59314;SDS011;46521;50.160;20.802;2023-05-02T10:32:23;8.77;;;3.20;;
59314;SDS011;46521;50.160;20.802;2023-05-02T10:42:28;6.50;;;3.30;;
59314;SDS011;46521;50.160;20.802;2023-05-02T10:52:31;6.95;;;3.10;;
59314;SDS011;46521;50.160;20.802;2023-05-02T11:33:26;5.55;;;2.70;;
59314;SDS011;46521;50.160;20.802;2023-05-02T11:43:29;6.67;;;3.17;;
59314;SDS011;46521;50.160;20.802;2023-05-02T11:53:31;5.93;;;2.80;;
59314;SDS011;46521;50.160;20.802;2023-05-02T12:03:33;8.23;;;3.10;;
59314;SDS011;46521;50.160;20.802;2023-05-02T12:13:34;6.83;;;3.37;;
59314;SDS011;46521;50.160;20.802;2023-05-02T12:23:45;6.77;;;3.70;;
59314;SDS011;46521;50.160;20.802;2023-05-02T12:33:47;7.00;;;3.48;;
59314;SDS011;46521;50.160;20.802;2023-05-02T12:43:50;9.90;;;3.63;;
59314;SDS011;46521;50.160;20.802;2023-05-02T12:53:52;6.73;;;3.35;;
59314;SDS011;46521;50.160;20.802;2023-05-02T13:03:53;8.60;;;4.10;;
59314;SDS011;46521;50.160;20.802;2023-05-02T13:13:55;6.60;;;3.10;;
59314;SDS011;46521;50.160;20.802;2023-05-02T13:23:56;7.65;;;3.60;;
59314;SDS011;46521;50.160;20.802;2023-05-02T13:33:58;7.47;;;3.63;;
59314;SDS011;46521;50.160;20.802;2023-05-02T13:44:00;9.45;;;5.30;;
59314;SDS011;46521;50.160;20.802;2023-05-02T13:54:01;9.28;;;4.40;;
59314;SDS011;46521;50.160;20.802;2023-05-02T14:04:03;10.03;;;4.83;;
59314;SDS011;46521;50.160;20.802;2023-05-02T14:14:08;9.25;;;5.35;;
59314;SDS011;46521;50.160;20.802;2023-05-02T14:24:12;8.10;;;4.13;;
59314;SDS011;46521;50.160;20.802;2023-05-02T14:34:16;7.53;;;3.33;;
59314;SDS011;46521;50.160;20.802;2023-05-02T14:44:17;6.55;;;3.05;;
59314;SDS011;46521;50.160;20.802;2023-05-02T14:54:19;6.63;;;3.40;;
59314;SDS011;46521;50.160;20.802;2023-05-02T15:04:22;6.87;;;3.33;;
59314;SDS011;46521;50.160;20.802;2023-05-02T15:14:25;7.27;;;3.83;;
59314;SDS011;46521;50.160;20.802;2023-05-02T15:24:27;7.27;;;3.93;;
59314;SDS011;46521;50.160;20.802;2023-05-02T15:34:28;7.60;;;3.50;;
59314;SDS011;46521;50.160;20.802;2023-05-02T15:44:36;8.50;;;4.40;;
59314;SDS011;46521;50.160;20.802;2023-05-02T15:54:37;9.25;;;5.70;;
59314;SDS011;46521;50.160;20.802;2023-05-02T16:04:39;10.45;;;6.45;;
59314;SDS011;46521;50.160;20.802;2023-05-02T16:14:42;10.23;;;6.43;;
59314;SDS011;46521;50.160;20.802;2023-05-02T16:24:44;9.73;;;5.45;;
59314;SDS011;46521;50.160;20.802;2023-05-02T16:34:46;8.97;;;5.17;;
59314;SDS011;46521;50.160;20.802;2023-05-02T16:44:47;7.70;;;3.40;;
59314;SDS011;46521;50.160;20.802;2023-05-02T16:54:49;7.43;;;3.80;;
59314;SDS011;46521;50.160;20.802;2023-05-02T17:04:50;8.20;;;4.10;;
59314;SDS011;46521;50.160;20.802;2023-05-02T17:14:52;7.80;;;3.43;;
59314;SDS011;46521;50.160;20.802;2023-05-02T17:24:53;7.30;;;3.38;;
59314;SDS011;46521;50.160;20.802;2023-05-02T17:34:56;8.33;;;3.33;;
59314;SDS011;46521;50.160;20.802;2023-05-02T17:44:57;6.58;;;3.48;;
59314;SDS011;46521;50.160;20.802;2023-05-02T17:54:58;8.20;;;3.70;;
59314;SDS011;46521;50.160;20.802;2023-05-02T18:05:00;7.38;;;3.88;;
59314;SDS011;46521;50.160;20.802;2023-05-02T18:15:03;9.53;;;5.10;;
59314;SDS011;46521;50.160;20.802;2023-05-02T18:25:05;9.20;;;5.20;;
59314;SDS011;46521;50.160;20.802;2023-05-02T18:35:07;9.30;;;5.20;;
59314;SDS011;46521;50.160;20.802;2023-05-02T18:45:10;11.60;;;6.27;;
59314;SDS011;46521;50.160;20.802;2023-05-02T18:55:12;9.23;;;5.60;;
59314;SDS011;46521;50.160;20.802;2023-05-02T19:05:13;9.88;;;5.00;;
59314;SDS011;46521;50.160;20.802;2023-05-02T19:15:15;8.80;;;4.83;;
59314;SDS011;46521;50.160;20.802;2023-05-02T19:25:17;9.30;;;5.40;;
59314;SDS011;46521;50.160;20.802;2023-05-02T19:35:19;8.67;;;5.37;;
59314;SDS011;46521;50.160;20.802;2023-05-02T19:45:21;10.85;;;5.53;;
59314;SDS011;46521;50.160;20.802;2023-05-02T19:55:23;10.03;;;6.70;;
59314;SDS011;46521;50.160;20.802;2023-05-02T20:05:24;10.70;;;6.10;;
59314;SDS011;46521;50.160;20.802;2023-05-02T20:15:25;9.30;;;6.33;;
59314;SDS011;46521;50.160;20.802;2023-05-02T20:25:27;11.07;;;6.70;;
59314;SDS011;46521;50.160;20.802;2023-05-02T20:35:29;12.97;;;7.80;;
59314;SDS011;46521;50.160;20.802;2023-05-02T20:45:31;11.90;;;6.85;;
59314;SDS011;46521;50.160;20.802;2023-05-02T20:55:34;10.80;;;6.58;;
59314;SDS011;46521;50.160;20.802;2023-05-02T21:05:35;11.33;;;7.53;;
59314;SDS011;46521;50.160;20.802;2023-05-02T21:15:37;12.20;;;8.13;;
59314;SDS011;46521;50.160;20.802;2023-05-02T21:25:39;12.18;;;8.68;;
59314;SDS011;46521;50.160;20.802;2023-05-02T21:35:41;14.47;;;9.63;;
59314;SDS011;46521;50.160;20.802;2023-05-02T21:45:46;15.30;;;10.40;;
59314;SDS011;46521;50.160;20.802;2023-05-02T21:55:49;19.37;;;12.83;;
59314;SDS011;46521;50.160;20.802;2023-05-02T22:05:52;17.35;;;12.63;;
59314;SDS011;46521;50.160;20.802;2023-05-02T22:15:57;14.73;;;11.17;;
59314;SDS011;46521;50.160;20.802;2023-05-02T22:25:58;15.90;;;11.30;;
59314;SDS011;46521;50.160;20.802;2023-05-02T22:36:00;13.85;;;9.63;;
59314;SDS011;46521;50.160;20.802;2023-05-02T22:46:02;14.78;;;9.03;;
59314;SDS011;46521;50.160;20.802;2023-05-02T22:56:03;12.78;;;8.20;;
59314;SDS011;46521;50.160;20.802;2023-05-02T23:06:05;13.80;;;9.03;;
59314;SDS011;46521;50.160;20.802;2023-05-02T23:16:07;12.83;;;8.03;;
59314;SDS011;46521;50.160;20.802;2023-05-02T23:26:09;13.13;;;8.37;;
59314;SDS011;46521;50.160;20.802;2023-05-02T23:36:10;13.60;;;8.77;;
59314;SDS011;46521;50.160;20.802;2023-05-02T23:46:12;11.87;;;7.63;;
